Time;durP1;ratioP1;P1;durP2;ratioP2;P2;SDS_P1;SDS_P2;PMS_P1;PMS_P2;Temp;Humidity;BMP_temperature;BMP_pressure;BME280_temperature;BME280_humidity;BME280_pressure;Samples;Min_cycle;Max_cycle;Signal;HPM_P1;HPM_P2
2022/07/24 00:00:16;;;;;;;3.23;2.00;;;15.60;99.90;;;;;;6076314;23;20217;-88
2022/07/24 00:02:42;;;;;;;3.50;2.47;;;15.60;99.90;;;;;;6126470;23;20215;-87
2022/07/24 00:05:08;;;;;;;3.23;2.40;;;15.60;99.90;;;;;;6101213;23;20165;-88
2022/07/24 00:07:34;;;;;;;5.50;2.60;;;15.60;99.90;;;;;;6100789;23;20200;-88
2022/07/24 00:10:01;;;;;;;3.97;2.67;;;15.60;99.90;;;;;;6100739;23;20200;-87
2022/07/24 00:12:27;;;;;;;4.03;2.87;;;15.60;99.90;;;;;;6124857;23;20231;-88
2022/07/24 00:14:53;;;;;;;3.27;2.40;;;15.60;99.90;;;;;;6077031;23;20196;-88
2022/07/24 00:17:18;;;;;;;3.43;2.90;;;15.60;99.90;;;;;;6101275;23;20222;-87
2022/07/24 00:19:44;;;;;;;3.10;2.60;;;15.50;99.90;;;;;;6100486;23;20295;-88
2022/07/24 00:22:10;;;;;;;5.07;3.43;;;15.50;99.90;;;;;;6076415;23;20256;-88
2022/07/24 00:24:36;;;;;;;5.13;2.97;;;15.50;99.90;;;;;;6076688;23;20206;-88
2022/07/24 00:27:02;;;;;;;3.70;2.30;;;15.50;99.90;;;;;;6076439;23;20188;-87
2022/07/24 00:29:28;;;;;;;6.03;3.10;;;15.40;99.90;;;;;;6100600;23;20544;-87
2022/07/24 00:31:54;;;;;;;2.73;2.20;;;15.40;99.90;;;;;;6125176;23;20274;-88
2022/07/24 00:34:20;;;;;;;4.47;3.20;;;15.40;99.90;;;;;;6076587;23;20211;-88
2022/07/24 00:36:45;;;;;;;4.23;2.50;;;15.40;99.90;;;;;;6076501;23;20192;-88
2022/07/24 00:39:11;;;;;;;5.20;2.83;;;15.40;99.90;;;;;;6076370;23;20226;-87
2022/07/24 00:41:38;;;;;;;4.00;2.87;;;15.30;99.90;;;;;;6100456;23;20160;-87
2022/07/24 00:44:12;;;;;;;5.93;3.07;;;15.30;99.90;;;;;;6077140;23;20167;-87
2022/07/24 00:46:40;;;;;;;4.63;2.97;;;15.30;99.90;;;;;;6124698;23;20194;-88
2022/07/24 00:49:08;;;;;;;4.77;2.70;;;15.30;99.90;;;;;;6100502;23;20196;-88
2022/07/24 00:51:35;;;;;;;4.80;3.13;;;15.30;99.90;;;;;;6124529;23;20231;-88
2022/07/24 00:54:05;;;;;;;6.10;3.57;;;15.40;99.90;;;;;;6124932;23;20199;-88
2022/07/24 00:56:31;;;;;;;4.10;2.43;;;15.40;99.90;;;;;;6124884;23;20149;-88
2022/07/24 00:58:57;;;;;;;4.97;2.90;;;15.40;99.90;;;;;;6125483;23;20156;-88
2022/07/24 01:01:23;;;;;;;7.13;3.43;;;15.40;99.90;;;;;;6100231;23;20196;-88
2022/07/24 01:03:49;;;;;;;6.00;3.33;;;15.40;99.90;;;;;;6100220;23;20223;-88
2022/07/24 01:06:15;;;;;;;4.20;3.63;;;15.50;99.90;;;;;;6100642;23;20195;-88
2022/07/24 01:08:45;;;;;;;3.13;2.80;;;15.50;99.90;;;;;;6126056;23;20589;-88
2022/07/24 01:11:12;;;;;;;5.23;3.43;;;15.50;99.90;;;;;;6126218;23;20198;-88
2022/07/24 01:13:38;;;;;;;4.93;2.67;;;15.40;99.90;;;;;;6102082;23;20199;-88
2022/07/24 01:16:04;;;;;;;4.17;3.17;;;15.40;99.90;;;;;;6126585;23;20616;-88
2022/07/24 01:18:30;;;;;;;4.70;3.10;;;15.40;99.90;;;;;;6126675;23;20216;-88
2022/07/24 01:20:56;;;;;;;4.00;3.03;;;15.40;99.90;;;;;;6102293;23;20198;-88
2022/07/24 01:23:23;;;;;;;5.30;3.33;;;15.40;99.90;;;;;;6127155;23;20238;-88
2022/07/24 01:25:49;;;;;;;3.87;3.40;;;15.50;99.90;;;;;;6126173;23;20195;-88
2022/07/24 01:28:14;;;;;;;3.60;2.53;;;15.50;99.90;;;;;;6126496;23;20668;-88
2022/07/24 01:30:40;;;;;;;4.47;3.43;;;15.40;99.90;;;;;;6101741;23;20196;-87
2022/07/24 01:33:06;;;;;;;7.60;3.37;;;15.40;99.90;;;;;;6102081;23;20280;-88
2022/07/24 01:35:32;;;;;;;5.27;3.37;;;15.40;99.90;;;;;;6102085;23;20164;-87
2022/07/24 01:37:58;;;;;;;4.27;3.37;;;15.30;99.90;;;;;;6102611;23;20574;-88
2022/07/24 01:40:24;;;;;;;4.23;3.03;;;15.30;99.90;;;;;;6125637;23;20220;-88
2022/07/24 01:42:50;;;;;;;5.27;3.47;;;15.30;99.90;;;;;;6102230;23;20199;-88
2022/07/24 01:45:17;;;;;;;4.13;2.73;;;15.30;99.90;;;;;;6126147;23;20192;-88
2022/07/24 01:47:43;;;;;;;3.97;3.43;;;15.30;99.90;;;;;;6126404;23;20160;-88
2022/07/24 01:50:13;;;;;;;5.90;4.07;;;15.30;99.90;;;;;;6102869;23;20170;-88
2022/07/24 01:52:39;;;;;;;7.37;3.63;;;15.30;99.90;;;;;;6125984;23;20287;-88
2022/07/24 01:55:06;;;;;;;4.13;3.60;;;15.30;99.90;;;;;;6077984;23;20242;-88
2022/07/24 01:57:32;;;;;;;6.33;4.00;;;15.30;99.90;;;;;;6125911;23;20192;-88
2022/07/24 01:59:59;;;;;;;6.70;3.97;;;15.30;99.90;;;;;;6101864;23;20201;-88
2022/07/24 02:02:25;;;;;;;4.90;3.57;;;15.30;99.90;;;;;;6126338;23;20180;-87
2022/07/24 02:04:51;;;;;;;6.40;4.33;;;15.30;99.90;;;;;;6125301;23;20649;-86
2022/07/24 02:07:17;;;;;;;8.97;4.90;;;15.30;99.90;;;;;;6077151;23;20263;-86
2022/07/24 02:09:43;;;;;;;5.50;3.57;;;15.30;99.90;;;;;;6125573;23;20200;-86
2022/07/24 02:12:08;;;;;;;5.20;3.67;;;15.30;99.90;;;;;;6101200;23;20210;-86
2022/07/24 02:14:34;;;;;;;6.00;4.07;;;15.40;99.90;;;;;;6101013;23;20171;-86
2022/07/24 02:17:00;;;;;;;7.53;4.30;;;15.40;99.90;;;;;;6102073;23;20161;-86
2022/07/24 02:19:26;;;;;;;7.97;4.67;;;15.40;99.90;;;;;;6101205;23;20207;-86
2022/07/24 02:21:51;;;;;;;8.30;4.50;;;15.40;99.90;;;;;;6101200;23;20287;-86
2022/07/24 02:24:17;;;;;;;7.83;4.77;;;15.50;99.90;;;;;;6077443;23;20219;-86
2022/07/24 02:26:43;;;;;;;4.90;4.00;;;15.50;99.90;;;;;;6101348;23;20160;-86
2022/07/24 02:29:09;;;;;;;7.70;4.27;;;15.50;99.90;;;;;;6126077;23;20190;-86
2022/07/24 02:31:34;;;;;;;7.23;4.60;;;15.50;99.90;;;;;;6100946;23;20287;-87
2022/07/24 02:34:00;;;;;;;5.60;4.50;;;15.50;99.90;;;;;;6077414;23;20644;-86
2022/07/24 02:36:26;;;;;;;5.83;4.37;;;15.50;99.90;;;;;;6100916;23;20275;-86
2022/07/24 02:38:52;;;;;;;7.70;4.27;;;15.60;99.90;;;;;;6099299;23;20199;-86
2022/07/24 02:41:18;;;;;;;6.47;4.40;;;15.50;99.90;;;;;;6025315;23;20204;-86
2022/07/24 02:43:44;;;;;;;6.93;4.33;;;15.50;99.90;;;;;;6071768;23;20204;-86
2022/07/24 02:46:10;;;;;;;6.63;4.43;;;15.50;99.90;;;;;;6024253;23;20197;-86
2022/07/24 02:48:36;;;;;;;7.60;4.87;;;15.50;99.90;;;;;;6048158;23;20205;-86
2022/07/24 02:51:02;;;;;;;7.20;5.00;;;15.50;99.90;;;;;;6024924;23;20279;-86
2022/07/24 02:53:28;;;;;;;6.63;3.90;;;15.50;99.90;;;;;;6072167;23;20165;-86
2022/07/24 02:55:54;;;;;;;7.30;4.63;;;15.60;99.90;;;;;;6025458;23;20606;-86
2022/07/24 02:58:20;;;;;;;5.00;3.60;;;15.60;99.90;;;;;;6097187;23;20201;-86
2022/07/24 03:00:46;;;;;;;5.50;3.47;;;15.60;99.90;;;;;;6047949;23;20205;-86
2022/07/24 03:03:11;;;;;;;9.87;4.63;;;15.60;99.90;;;;;;6024295;23;20223;-86
2022/07/24 03:05:37;;;;;;;9.73;4.80;;;15.60;99.90;;;;;;6072166;23;20164;-86
2022/07/24 03:08:03;;;;;;;8.83;5.00;;;15.60;99.90;;;;;;6049263;23;20164;-87
2022/07/24 03:10:29;;;;;;;5.77;4.30;;;15.60;99.90;;;;;;6048239;23;20275;-88
2022/07/24 03:12:55;;;;;;;8.60;5.93;;;15.60;99.90;;;;;;6048337;23;20701;-87
2022/07/24 03:15:20;;;;;;;6.40;3.93;;;15.60;99.90;;;;;;6048150;23;20802;-87
2022/07/24 03:17:55;;;;;;;5.07;4.37;;;15.60;99.90;;;;;;6071809;23;20165;-87
2022/07/24 03:20:22;;;;;;;6.97;4.93;;;15.50;99.90;;;;;;6048769;23;20168;-87
2022/07/24 03:22:49;;;;;;;8.43;4.37;;;15.60;99.90;;;;;;6048003;23;20227;-87
2022/07/24 03:25:15;;;;;;;8.57;4.67;;;15.60;99.90;;;;;;6071838;23;20638;-87
2022/07/24 03:27:41;;;;;;;7.70;4.97;;;15.60;99.90;;;;;;6048081;23;20211;-87
2022/07/24 03:30:08;;;;;;;8.33;4.70;;;15.60;99.90;;;;;;6072254;23;20267;-87
2022/07/24 03:32:34;;;;;;;6.87;5.37;;;15.60;99.90;;;;;;6096771;23;20187;-87
2022/07/24 03:35:00;;;;;;;7.50;5.20;;;15.60;99.90;;;;;;6048812;23;20595;-86
2022/07/24 03:37:26;;;;;;;6.73;5.20;;;15.60;99.90;;;;;;6048150;23;20200;-87
2022/07/24 03:39:51;;;;;;;6.07;4.63;;;15.60;99.90;;;;;;6069034;23;20219;-87
2022/07/24 03:42:17;;;;;;;9.23;5.60;;;15.60;99.90;;;;;;6100684;23;20192;-87
2022/07/24 03:44:43;;;;;;;5.97;4.77;;;15.60;99.90;;;;;;6076885;23;20160;-87
2022/07/24 03:47:08;;;;;;;8.30;4.80;;;15.60;99.90;;;;;;6077485;23;20171;-87
2022/07/24 03:49:34;;;;;;;8.27;4.27;;;15.60;99.90;;;;;;6100490;23;20214;-87
2022/07/24 03:52:00;;;;;;;11.00;5.80;;;15.60;99.90;;;;;;6076452;23;20207;-87
2022/07/24 03:54:26;;;;;;;7.87;5.17;;;15.60;99.90;;;;;;6100749;23;20641;-87
2022/07/24 03:56:51;;;;;;;7.83;5.33;;;15.60;99.90;;;;;;6124796;23;20644;-87
2022/07/24 03:59:18;;;;;;;7.67;5.63;;;15.60;99.90;;;;;;6100999;23;20160;-87
2022/07/24 04:01:44;;;;;;;10.30;6.13;;;15.60;99.90;;;;;;6124849;23;20219;-87
2022/07/24 04:04:10;;;;;;;6.27;4.27;;;15.60;99.90;;;;;;6124928;23;20203;-87
2022/07/24 04:06:36;;;;;;;8.83;5.83;;;15.60;99.90;;;;;;6124883;23;20206;-87
2022/07/24 04:09:04;;;;;;;6.90;5.37;;;15.60;99.90;;;;;;6100988;23;20633;-88
2022/07/24 04:11:29;;;;;;;8.57;5.17;;;15.70;99.90;;;;;;6125072;23;20179;-88
2022/07/24 04:13:55;;;;;;;9.00;5.70;;;15.70;99.90;;;;;;6101651;23;20328;-87
2022/07/24 04:16:21;;;;;;;8.57;5.27;;;15.70;99.90;;;;;;6076687;23;20275;-88
2022/07/24 04:18:47;;;;;;;8.97;5.77;;;15.70;99.90;;;;;;6100600;23;20223;-86
2022/07/24 04:21:13;;;;;;;6.87;5.23;;;15.70;99.90;;;;;;6125142;23;20192;-87
2022/07/24 04:23:39;;;;;;;6.20;4.73;;;15.70;99.90;;;;;;6124994;23;20239;-87
2022/07/24 04:26:04;;;;;;;7.77;5.27;;;15.80;99.90;;;;;;6101215;23;20167;-87
2022/07/24 04:28:30;;;;;;;8.73;4.97;;;15.80;99.90;;;;;;6099856;23;20256;-87
2022/07/24 04:30:56;;;;;;;7.03;4.83;;;15.90;99.90;;;;;;6100306;23;20200;-87
2022/07/24 04:33:22;;;;;;;8.90;5.53;;;15.90;99.90;;;;;;6100597;23;20195;-87
2022/07/24 04:35:47;;;;;;;10.40;5.23;;;15.90;99.90;;;;;;6100359;23;20531;-87
2022/07/24 04:38:13;;;;;;;7.53;6.23;;;15.90;99.90;;;;;;6101195;23;20165;-87
2022/07/24 04:40:40;;;;;;;8.73;5.47;;;16.00;99.90;;;;;;6100166;23;20219;-87
2022/07/24 04:43:06;;;;;;;10.27;5.90;;;16.00;99.90;;;;;;6124845;23;20218;-87
2022/07/24 04:45:32;;;;;;;9.23;5.53;;;16.10;99.90;;;;;;6125991;23;20271;-87
2022/07/24 04:47:57;;;;;;;10.13;5.67;;;16.20;99.90;;;;;;6102500;23;20199;-87
2022/07/24 04:50:23;;;;;;;9.70;5.63;;;16.20;99.90;;;;;;6103088;23;20584;-87
2022/07/24 04:52:49;;;;;;;6.30;4.63;;;16.30;99.90;;;;;;6078078;23;20263;-87
2022/07/24 04:55:15;;;;;;;7.73;6.13;;;16.40;99.90;;;;;;6078649;23;20219;-87
2022/07/24 04:57:41;;;;;;;10.27;5.87;;;16.40;99.90;;;;;;6126315;23;20657;-87
2022/07/24 05:00:10;;;;;;;8.37;6.03;;;16.50;99.90;;;;;;6126508;23;20191;-87
2022/07/24 05:02:36;;;;;;;7.50;4.77;;;16.60;99.90;;;;;;6102418;23;20223;-87
2022/07/24 05:05:02;;;;;;;7.33;5.07;;;16.70;99.90;;;;;;6103126;23;20837;-86
2022/07/24 05:07:28;;;;;;;6.40;5.40;;;16.70;99.90;;;;;;6102366;23;20200;-87
2022/07/24 05:09:54;;;;;;;10.37;5.37;;;16.80;99.90;;;;;;6078221;23;20259;-86
2022/07/24 05:12:19;;;;;;;8.33;5.10;;;16.80;99.90;;;;;;6102168;23;20204;-88
2022/07/24 05:14:45;;;;;;;8.80;5.37;;;16.90;99.90;;;;;;6126571;23;20198;-88
2022/07/24 05:17:11;;;;;;;8.17;5.20;;;16.90;99.90;;;;;;6078940;23;20203;-88
2022/07/24 05:19:37;;;;;;;7.37;5.60;;;17.10;99.90;;;;;;6078187;23;20200;-88
2022/07/24 05:22:02;;;;;;;9.60;6.20;;;17.30;99.90;;;;;;6077983;23;20195;-88
2022/07/24 05:24:29;;;;;;;11.00;7.00;;;17.60;99.90;;;;;;6078627;23;20634;-88
2022/07/24 05:26:54;;;;;;;9.03;6.37;;;18.10;99.90;;;;;;6078508;23;20200;-88
2022/07/24 05:29:20;;;;;;;10.50;6.67;;;19.20;99.90;;;;;;6103058;23;20183;-88
2022/07/24 05:31:46;;;;;;;12.40;6.27;;;20.80;99.90;;;;;;6101845;23;20510;-88
2022/07/24 05:34:12;;;;;;;11.07;6.00;;;21.80;99.90;;;;;;6102355;23;20200;-88
2022/07/24 05:36:38;;;;;;;9.20;5.17;;;22.10;99.90;;;;;;6078029;23;20278;-88
2022/07/24 05:39:05;;;;;;;8.57;6.57;;;21.80;99.90;;;;;;6122701;23;20275;-88
2022/07/24 05:41:31;;;;;;;8.07;5.20;;;21.30;99.90;;;;;;6049891;23;20539;-88
2022/07/24 05:43:57;;;;;;;6.87;5.00;;;20.80;99.90;;;;;;6049864;23;20165;-87
2022/07/24 05:46:23;;;;;;;10.23;5.40;;;20.20;99.90;;;;;;6025667;23;20244;-88
2022/07/24 05:48:49;;;;;;;9.97;6.20;;;19.90;99.90;;;;;;6049158;23;20204;-89
2022/07/24 05:51:15;;;;;;;10.03;6.27;;;20.60;99.90;;;;;;6025537;23;20357;-87
2022/07/24 05:53:40;;;;;;;8.10;5.73;;;21.70;99.90;;;;;;6049146;23;20492;-87
2022/07/24 05:56:06;;;;;;;7.80;5.57;;;23.40;99.90;;;;;;6030274;23;20157;-93
2022/07/24 05:58:32;;;;;;;8.37;5.50;;;24.20;99.90;;;;;;6026752;23;20199;-92
2022/07/24 06:00:58;;;;;;;10.10;5.87;;;24.70;99.90;;;;;;6074016;23;20272;-91
2022/07/24 06:03:24;;;;;;;9.60;6.20;;;26.20;99.90;;;;;;6027962;23;20188;-90
2022/07/24 06:05:50;;;;;;;8.80;5.82;;;27.50;99.90;;;;;;6025954;23;20243;-92
2022/07/24 06:08:15;;;;;;;8.85;6.07;;;27.90;99.90;;;;;;6050297;23;20161;-92
2022/07/24 06:10:41;;;;;;;7.97;5.80;;;28.00;99.90;;;;;;6049277;23;20284;-91
2022/07/24 06:13:07;;;;;;;8.05;5.40;;;28.40;99.90;;;;;;6049071;23;20232;-90
2022/07/24 06:15:33;;;;;;;7.78;5.75;;;29.60;99.90;;;;;;6049218;23;20201;-92
2022/07/24 06:17:59;;;;;;;6.80;5.13;;;30.00;99.90;;;;;;6049555;23;20193;-92
2022/07/24 06:20:24;;;;;;;8.75;5.93;;;29.90;99.90;;;;;;6050563;23;20171;-93
2022/07/24 06:22:53;;;;;;;10.60;6.15;;;31.00;99.90;;;;;;6031655;23;20594;-93
2022/07/24 06:25:19;;;;;;;8.90;6.20;;;29.70;99.90;;;;;;6080666;23;20192;-90
2022/07/24 06:27:48;;;;;;;9.07;5.88;;;30.40;99.90;;;;;;6026656;23;20232;-91
2022/07/24 06:30:21;;;;;;;6.95;4.65;;;30.30;99.90;;;;;;6074139;23;20212;-91
2022/07/24 06:32:47;;;;;;;7.50;5.97;;;30.40;99.90;;;;;;6073784;23;20535;-89
2022/07/24 06:35:13;;;;;;;7.50;5.18;;;30.50;99.90;;;;;;6051341;23;20156;-91
2022/07/24 06:37:39;;;;;;;6.47;5.10;;;31.30;99.90;;;;;;6051677;23;20256;-89
2022/07/24 06:40:06;;;;;;;6.82;6.00;;;29.60;99.90;;;;;;6102134;23;20216;-94
2022/07/24 06:42:32;;;;;;;10.77;6.25;;;27.60;99.90;;;;;;6129377;23;20521;-91
2022/07/24 06:44:58;;;;;;;7.97;4.50;;;26.00;99.90;;;;;;6130926;23;20202;-92
2022/07/24 06:47:25;;;;;;;7.40;5.40;;;25.10;99.90;;;;;;6082057;23;20164;-93
2022/07/24 06:49:57;;;;;;;5.47;4.85;;;24.50;99.90;;;;;;6105085;23;20708;-95
2022/07/24 06:52:23;;;;;;;6.32;4.93;;;24.40;99.90;;;;;;6130979;23;20199;-94
2022/07/24 06:54:50;;;;;;;9.35;5.75;;;24.20;99.90;;;;;;6117134;23;20257;-93
2022/07/24 06:57:17;;;;;;;10.30;5.78;;;23.90;99.90;;;;;;6133190;23;20577;-94
2022/07/24 06:59:44;;;;;;;7.22;4.93;;;23.90;99.90;;;;;;6104914;23;20163;-92
2022/07/24 07:02:10;;;;;;;7.75;5.03;;;23.60;99.90;;;;;;6127709;23;20170;-95
2022/07/24 07:04:35;;;;;;;9.27;4.47;;;23.40;99.90;;;;;;6078508;23;20215;-92
2022/07/24 07:07:02;;;;;;;5.00;3.65;;;23.40;99.90;;;;;;6078132;23;20657;-93
2022/07/24 07:09:28;;;;;;;4.70;2.78;;;23.10;99.90;;;;;;6103382;23;20188;-91
2022/07/24 07:11:54;;;;;;;9.45;3.22;;;22.70;99.90;;;;;;6127448;23;20200;-95
2022/07/24 07:14:20;;;;;;;3.40;2.40;;;22.50;99.90;;;;;;6107301;23;20169;-93
2022/07/24 07:16:46;;;;;;;3.17;2.50;;;22.30;99.90;;;;;;6130453;23;20915;-92
2022/07/24 07:19:12;;;;;;;6.53;3.43;;;22.20;99.90;;;;;;6104463;23;20226;-95
2022/07/24 07:21:38;;;;;;;3.55;2.72;;;22.00;99.90;;;;;;6131508;23;20200;-93
2022/07/24 07:24:05;;;;;;;4.45;3.35;;;22.10;99.90;;;;;;6077808;23;20256;-91
2022/07/24 07:26:30;;;;;;;7.07;3.03;;;22.00;99.90;;;;;;6102900;23;20163;-95
2022/07/24 07:28:56;;;;;;;2.87;2.57;;;21.80;99.90;;;;;;6102910;23;20161;-93
2022/07/24 07:31:24;;;;;;;6.93;3.10;;;21.80;99.90;;;;;;6078498;23;20243;-92
2022/07/24 07:33:50;;;;;;;4.90;2.93;;;21.70;99.90;;;;;;6078093;23;20279;-92
2022/07/24 07:36:17;;;;;;;4.30;2.47;;;21.70;99.90;;;;;;6109644;23;20528;-95
2022/07/24 07:38:43;;;;;;;5.50;3.67;;;21.80;99.90;;;;;;6112757;23;20160;-96
2022/07/24 07:41:08;;;;;;;3.50;2.73;;;21.70;99.90;;;;;;6081093;23;20229;-94
2022/07/24 07:43:34;;;;;;;7.37;2.87;;;21.70;99.90;;;;;;6083182;23;20207;-96
2022/07/24 07:46:00;;;;;;;6.67;2.73;;;21.60;99.90;;;;;;6079294;23;20673;-95
2022/07/24 07:48:26;;;;;;;4.57;2.80;;;21.50;99.90;;;;;;6105634;23;20192;-93
2022/07/24 07:50:52;;;;;;;8.83;3.30;;;21.50;99.90;;;;;;6082743;23;20195;-94
2022/07/24 07:53:18;;;;;;;6.10;2.83;;;21.50;99.90;;;;;;6086696;23;20206;-93
2022/07/24 07:55:48;;;;;;;5.43;3.07;;;21.50;99.90;;;;;;6090053;23;20247;-95
2022/07/24 07:58:15;;;;;;;4.17;2.60;;;21.70;99.90;;;;;;6090093;23;20641;-95
2022/07/24 08:00:41;;;;;;;5.50;2.77;;;22.50;99.90;;;;;;6107235;23;20192;-93
2022/07/24 08:03:06;;;;;;;4.83;3.50;;;23.80;99.90;;;;;;6081885;23;20207;-93
2022/07/24 08:05:34;;;;;;;6.17;2.87;;;25.20;99.90;;;;;;6104228;23;20161;-94
2022/07/24 08:08:01;;;;;;;5.57;2.60;;;26.20;99.90;;;;;;6105189;23;20184;-95
2022/07/24 08:10:27;;;;;;;4.85;2.45;;;27.10;99.90;;;;;;6129679;23;20192;-92
2022/07/24 08:12:53;;;;;;;4.43;2.42;;;28.00;99.90;;;;;;6128948;23;20204;-92
2022/07/24 08:15:19;;;;;;;4.47;2.58;;;27.60;99.90;;;;;;6127653;23;20199;-93
2022/07/24 08:17:45;;;;;;;4.93;2.45;;;26.50;99.90;;;;;;6130742;23;20864;-91
2022/07/24 08:20:11;;;;;;;2.95;2.38;;;27.30;99.90;;;;;;6104584;23;20167;-93
2022/07/24 08:22:37;;;;;;;4.47;2.55;;;28.20;99.90;;;;;;6105256;23;20203;-94
2022/07/24 08:25:03;;;;;;;4.13;2.03;;;28.00;99.90;;;;;;6079665;23;20192;-95
2022/07/24 08:27:29;;;;;;;9.65;3.10;;;27.50;99.90;;;;;;6103068;23;20637;-93
2022/07/24 08:29:55;;;;;;;6.47;2.55;;;27.60;99.90;;;;;;6079236;23;20188;-95
2022/07/24 08:32:21;;;;;;;3.22;2.50;;;27.80;99.90;;;;;;6112320;23;20168;-95
2022/07/24 08:34:48;;;;;;;2.03;1.75;;;27.40;99.90;;;;;;6104322;23;20227;-93
2022/07/24 08:37:14;;;;;;;3.20;2.38;;;27.10;99.90;;;;;;6078736;23;20200;-92
2022/07/24 08:39:39;;;;;;;2.38;1.98;;;27.60;99.90;;;;;;6079209;23;20212;-93
2022/07/24 08:42:08;;;;;;;3.40;2.05;;;28.70;99.90;;;;;;6077623;23;20203;-93
2022/07/24 08:44:34;;;;;;;2.58;2.00;;;29.80;99.90;;;;;;6126633;23;20231;-94
2022/07/24 08:47:01;;;;;;;3.40;1.85;;;29.80;99.90;;;;;;6103198;23;20152;-91
2022/07/24 08:49:31;;;;;;;2.75;2.28;;;29.70;99.90;;;;;;6077499;23;20195;-92
2022/07/24 08:51:59;;;;;;;3.65;1.77;;;30.00;99.90;;;;;;6126404;23;20251;-93
2022/07/24 08:54:25;;;;;;;3.80;2.13;;;29.70;99.90;;;;;;6102301;23;20192;-93
2022/07/24 08:56:51;;;;;;;3.03;1.90;;;30.20;99.90;;;;;;6077759;23;20192;-93
2022/07/24 08:59:22;;;;;;;4.25;2.28;;;31.40;99.90;;;;;;6078913;23;20157;-92
2022/07/24 09:01:49;;;;;;;4.40;2.13;;;30.30;99.90;;;;;;6126740;23;20203;-94
2022/07/24 09:04:41;;;;;;;2.45;2.00;;;30.40;99.90;;;;;;6102366;23;20200;-93
2022/07/24 09:07:12;;;;;;;2.60;1.90;;;30.00;99.90;;;;;;6131394;23;20196;-89
2022/07/24 09:09:39;;;;;;;3.78;2.33;;;31.00;99.90;;;;;;6126396;23;20505;-96
2022/07/24 09:12:09;;;;;;;2.10;1.80;;;31.90;99.90;;;;;;6128042;23;20229;-91
2022/07/24 09:14:38;;;;;;;2.80;1.80;;;31.30;99.90;;;;;;6126944;23;20149;-91
2022/07/24 09:17:09;;;;;;;3.97;1.60;;;31.00;99.90;;;;;;6126566;23;20177;-93
2022/07/24 09:19:58;;;;;;;2.90;1.73;;;30.00;99.90;;;;;;6125601;23;20199;-92
2022/07/24 09:22:33;;;;;;;3.72;1.95;;;30.30;99.90;;;;;;6077998;23;20598;-92
2022/07/24 09:25:15;;;;;;;2.25;1.98;;;30.00;99.90;;;;;;6125454;23;20202;-92
2022/07/24 09:27:41;;;;;;;3.67;1.98;;;30.30;99.90;;;;;;6127115;23;20580;-93
2022/07/24 09:30:08;;;;;;;4.30;1.80;;;30.40;99.90;;;;;;6125984;23;20196;-92
2022/07/24 09:32:36;;;;;;;3.00;1.95;;;29.90;99.90;;;;;;6127999;23;20184;-93
2022/07/24 09:35:02;;;;;;;3.20;2.00;;;29.70;99.90;;;;;;6104440;23;20210;-89
2022/07/24 09:37:29;;;;;;;3.03;2.15;;;29.30;99.90;;;;;;6127122;23;20267;-91
2022/07/24 09:40:07;;;;;;;3.88;1.95;;;30.40;99.90;;;;;;6127474;23;20657;-92
2022/07/24 09:42:38;;;;;;;2.38;2.00;;;31.30;99.90;;;;;;6127303;23;20195;-94
2022/07/24 09:45:07;;;;;;;1.95;1.85;;;31.50;99.90;;;;;;6103595;23;20207;-89
2022/07/24 09:47:34;;;;;;;2.67;1.75;;;31.50;99.90;;;;;;6079531;23;20156;-92
2022/07/24 09:50:13;;;;;;;3.15;1.80;;;30.70;99.90;;;;;;6102716;23;20159;-91
2022/07/24 09:52:41;;;;;;;3.50;1.90;;;30.20;99.90;;;;;;6126444;23;20575;-91
2022/07/24 09:55:20;;;;;;;4.13;2.40;;;28.60;99.90;;;;;;6100993;23;20196;-92
2022/07/24 09:57:46;;;;;;;2.22;2.03;;;28.10;99.90;;;;;;6126551;23;20270;-92
2022/07/24 10:00:12;;;;;;;2.78;1.85;;;28.40;99.90;;;;;;6101781;23;20192;-90
2022/07/24 10:02:42;;;;;;;5.90;2.25;;;28.10;99.90;;;;;;6077428;23;20160;-90
2022/07/24 10:05:09;;;;;;;2.60;2.10;;;27.10;99.90;;;;;;6103229;23;20160;-90
2022/07/24 10:07:36;;;;;;;3.70;1.90;;;27.90;99.90;;;;;;6101851;23;20207;-91
2022/07/24 10:10:02;;;;;;;2.22;1.90;;;28.00;99.90;;;;;;6102439;23;20207;-91
2022/07/24 10:12:30;;;;;;;3.40;2.00;;;27.70;99.90;;;;;;6126162;23;20266;-89
2022/07/24 10:14:57;;;;;;;2.33;1.70;;;28.10;99.90;;;;;;6078126;23;20565;-89
2022/07/24 10:18:00;;;;;;;2.03;1.65;;;28.60;99.90;;;;;;6102690;23;20255;-93
2022/07/24 10:20:41;;;;;;;2.63;1.88;;;28.60;99.90;;;;;;6126883;23;20521;-90
2022/07/24 10:23:08;;;;;;;2.70;1.95;;;27.30;99.90;;;;;;6126499;23;20160;-90
2022/07/24 10:25:52;;;;;;;3.67;1.80;;;26.60;99.90;;;;;;6101481;23;20196;-89
2022/07/24 10:28:39;;;;;;;2.10;1.70;;;26.80;99.90;;;;;;6126319;23;20200;-89
2022/07/24 10:31:07;;;;;;;2.47;1.90;;;27.10;99.90;;;;;;6127290;23;20196;-90
2022/07/24 10:33:35;;;;;;;4.40;1.85;;;26.10;99.90;;;;;;6126335;23;20645;-89
2022/07/24 10:36:07;;;;;;;2.33;1.50;;;26.60;99.90;;;;;;6101731;23;20195;-90
2022/07/24 10:38:38;;;;;;;3.08;1.80;;;27.70;99.90;;;;;;6126540;23;20227;-90
2022/07/24 10:41:14;;;;;;;3.33;1.80;;;28.40;99.90;;;;;;6126323;23;20637;-90
2022/07/24 10:43:40;;;;;;;2.40;1.98;;;28.60;99.90;;;;;;6126071;23;20196;-90
2022/07/24 10:46:06;;;;;;;3.95;2.05;;;28.30;99.90;;;;;;6125815;23;20204;-91
2022/07/24 10:48:36;;;;;;;4.97;2.00;;;28.70;99.90;;;;;;6125841;23;20511;-89
2022/07/24 10:51:15;;;;;;;2.42;1.83;;;28.80;99.90;;;;;;6101390;23;20215;-89
2022/07/24 10:53:48;;;;;;;2.63;1.77;;;28.10;99.90;;;;;;6126769;23;20151;-91
2022/07/24 10:56:16;;;;;;;4.20;1.70;;;27.50;99.90;;;;;;6127319;23;20156;-89
2022/07/24 10:59:07;;;;;;;2.67;1.85;;;28.30;99.90;;;;;;6125811;23;20625;-90
2022/07/24 11:01:51;;;;;;;4.68;1.95;;;28.80;99.90;;;;;;6125525;23;20281;-88
2022/07/24 11:04:23;;;;;;;1.58;1.40;;;28.90;99.90;;;;;;6102129;23;20200;-89
2022/07/24 11:06:53;;;;;;;1.60;1.50;;;28.80;99.90;;;;;;6126271;23;20204;-89
2022/07/24 11:09:24;;;;;;;1.52;1.42;;;29.10;99.90;;;;;;6125474;23;20192;-91
2022/07/24 11:11:53;;;;;;;2.25;1.70;;;28.20;99.90;;;;;;6125580;23;20199;-90
2022/07/24 11:14:37;;;;;;;2.35;1.50;;;27.90;99.90;;;;;;6126627;23;20586;-89
2022/07/24 11:17:37;;;;;;;2.75;1.90;;;27.30;99.90;;;;;;6126759;23;20199;-89
2022/07/24 11:20:05;;;;;;;2.15;1.90;;;27.60;99.90;;;;;;6126054;23;20187;-91
2022/07/24 11:22:54;;;;;;;1.60;1.50;;;27.70;99.90;;;;;;6101348;23;20513;-90
2022/07/24 11:25:22;;;;;;;1.95;1.30;;;27.60;99.90;;;;;;6124982;23;20641;-89
2022/07/24 11:28:11;;;;;;;2.33;1.65;;;28.00;99.90;;;;;;6125126;23;20323;-89
2022/07/24 11:30:46;;;;;;;2.25;1.85;;;27.90;99.90;;;;;;6110297;23;20704;-89
2022/07/24 11:33:20;;;;;;;2.22;1.40;;;28.10;99.90;;;;;;6124885;23;20203;-88
2022/07/24 11:35:46;;;;;;;2.47;1.20;;;27.90;99.90;;;;;;6125114;23;20148;-89
2022/07/24 11:38:14;;;;;;;1.77;1.45;;;27.70;99.90;;;;;;6125668;23;20164;-89
2022/07/24 11:40:40;;;;;;;1.38;1.27;;;27.60;99.90;;;;;;6101413;23;20685;-92
2022/07/24 11:43:09;;;;;;;2.03;1.70;;;27.90;99.90;;;;;;6098774;23;20265;-90
2022/07/24 11:45:35;;;;;;;2.40;1.95;;;28.10;99.90;;;;;;6100177;23;20214;-91
2022/07/24 11:48:01;;;;;;;1.77;1.60;;;27.60;99.90;;;;;;6100406;23;20196;-91
2022/07/24 11:50:27;;;;;;;4.78;2.00;;;27.90;99.90;;;;;;6101144;23;20210;-91
2022/07/24 11:52:53;;;;;;;1.98;1.65;;;27.90;99.90;;;;;;6125358;23;20199;-92
2022/07/24 11:55:21;;;;;;;2.08;1.60;;;28.30;99.90;;;;;;6124240;23;20198;-91
2022/07/24 11:57:52;;;;;;;1.65;1.52;;;28.40;99.90;;;;;;6125671;23;20279;-91
2022/07/24 12:00:24;;;;;;;3.17;1.80;;;27.90;99.90;;;;;;6126302;23;20274;-90
2022/07/24 12:02:54;;;;;;;1.70;1.50;;;27.60;99.90;;;;;;6124620;23;20629;-91
2022/07/24 12:05:26;;;;;;;1.60;1.50;;;27.60;99.90;;;;;;6125195;23;20488;-91
2022/07/24 12:07:52;;;;;;;2.10;1.70;;;28.00;99.90;;;;;;6124193;23;20191;-91
2022/07/24 12:10:22;;;;;;;2.58;1.88;;;28.00;99.90;;;;;;6100078;23;20196;-90
2022/07/24 12:12:50;;;;;;;2.55;1.52;;;28.00;99.90;;;;;;6100658;23;20208;-93
2022/07/24 12:15:16;;;;;;;1.75;1.58;;;27.40;99.90;;;;;;6124360;23;20389;-91
2022/07/24 12:18:02;;;;;;;2.20;1.75;;;27.10;99.90;;;;;;6100669;23;20175;-93
2022/07/24 12:20:30;;;;;;;3.63;1.60;;;26.80;99.90;;;;;;6125516;23;20151;-91
2022/07/24 12:22:58;;;;;;;3.00;1.65;;;27.30;99.90;;;;;;6126577;23;20152;-93
2022/07/24 12:25:24;;;;;;;2.47;1.40;;;27.30;99.90;;;;;;6102033;23;20195;-95
2022/07/24 12:28:00;;;;;;;2.42;1.77;;;27.50;99.90;;;;;;6101600;23;20203;-95
2022/07/24 12:30:31;;;;;;;1.98;1.42;;;27.60;99.90;;;;;;6102612;23;20195;-90
2022/07/24 12:32:58;;;;;;;1.90;1.60;;;27.60;99.90;;;;;;6126341;23;20243;-92
2022/07/24 12:35:25;;;;;;;2.00;1.80;;;27.60;99.90;;;;;;6124281;23;20167;-90
2022/07/24 12:37:52;;;;;;;1.67;1.58;;;27.60;99.90;;;;;;6125078;23;20672;-94
2022/07/24 12:40:30;;;;;;;4.55;1.80;;;27.50;99.90;;;;;;6125389;23;20294;-92
2022/07/24 12:43:06;;;;;;;2.13;1.63;;;27.50;99.90;;;;;;6124641;23;20199;-90
2022/07/24 12:45:32;;;;;;;2.17;1.65;;;27.30;99.90;;;;;;6124429;23;20207;-90
2022/07/24 12:48:19;;;;;;;1.98;1.55;;;27.40;99.90;;;;;;6075641;23;20195;-90